sensor_id;sensor_type;location;lat;lon;timestamp;P1;durP1;ratioP1;P2;durP2;ratioP2
78563;SDS011;67856;47.754;19.088;2023-05-07T00:02:25;2.07;;;1.60;;
78563;SDS011;67856;47.754;19.088;2023-05-07T00:05:27;1.77;;;1.63;;
78563;SDS011;67856;47.754;19.088;2023-05-07T00:08:30;1.70;;;1.52;;
78563;SDS011;67856;47.754;19.088;2023-05-07T00:11:32;1.98;;;1.70;;
78563;SDS011;67856;47.754;19.088;2023-05-07T00:14:37;2.28;;;1.95;;
78563;SDS011;67856;47.754;19.088;2023-05-07T00:17:40;1.87;;;1.60;;
78563;SDS011;67856;47.754;19.088;2023-05-07T00:20:42;2.80;;;1.80;;
78563;SDS011;67856;47.754;19.088;2023-05-07T00:23:45;2.25;;;1.75;;
78563;SDS011;67856;47.754;19.088;2023-05-07T00:26:47;2.00;;;1.42;;
78563;SDS011;67856;47.754;19.088;2023-05-07T00:29:50;2.35;;;1.80;;
78563;SDS011;67856;47.754;19.088;2023-05-07T00:32:52;2.40;;;2.00;;
78563;SDS011;67856;47.754;19.088;2023-05-07T00:35:55;1.80;;;1.47;;
78563;SDS011;67856;47.754;19.088;2023-05-07T00:38:59;1.80;;;1.60;;
78563;SDS011;67856;47.754;19.088;2023-05-07T00:42:02;1.80;;;1.65;;
78563;SDS011;67856;47.754;19.088;2023-05-07T00:45:05;2.15;;;1.77;;
78563;SDS011;67856;47.754;19.088;2023-05-07T00:48:09;1.50;;;1.40;;
78563;SDS011;67856;47.754;19.088;2023-05-07T00:51:12;1.80;;;1.50;;
78563;SDS011;67856;47.754;19.088;2023-05-07T00:54:14;2.08;;;1.88;;
78563;SDS011;67856;47.754;19.088;2023-05-07T00:57:17;2.20;;;1.75;;
78563;SDS011;67856;47.754;19.088;2023-05-07T01:00:19;2.20;;;1.70;;
78563;SDS011;67856;47.754;19.088;2023-05-07T01:03:22;2.10;;;1.73;;
78563;SDS011;67856;47.754;19.088;2023-05-07T01:06:24;2.03;;;1.73;;
78563;SDS011;67856;47.754;19.088;2023-05-07T01:09:30;1.73;;;1.55;;
78563;SDS011;67856;47.754;19.088;2023-05-07T01:12:33;1.60;;;1.45;;
78563;SDS011;67856;47.754;19.088;2023-05-07T01:15:36;2.63;;;2.00;;
78563;SDS011;67856;47.754;19.088;2023-05-07T01:18:39;1.77;;;1.53;;
78563;SDS011;67856;47.754;19.088;2023-05-07T01:21:43;1.90;;;1.70;;
78563;SDS011;67856;47.754;19.088;2023-05-07T01:24:48;1.98;;;1.77;;
78563;SDS011;67856;47.754;19.088;2023-05-07T01:27:51;1.77;;;1.60;;
78563;SDS011;67856;47.754;19.088;2023-05-07T01:31:00;1.95;;;1.60;;
78563;SDS011;67856;47.754;19.088;2023-05-07T01:34:03;1.50;;;1.40;;
78563;SDS011;67856;47.754;19.088;2023-05-07T01:37:07;1.90;;;1.70;;
78563;SDS011;67856;47.754;19.088;2023-05-07T01:40:09;1.60;;;1.50;;
78563;SDS011;67856;47.754;19.088;2023-05-07T01:43:12;1.70;;;1.42;;
78563;SDS011;67856;47.754;19.088;2023-05-07T01:46:16;1.73;;;1.55;;
78563;SDS011;67856;47.754;19.088;2023-05-07T01:49:19;1.97;;;1.77;;
78563;SDS011;67856;47.754;19.088;2023-05-07T01:52:22;2.17;;;1.70;;
78563;SDS011;67856;47.754;19.088;2023-05-07T01:55:24;2.60;;;1.83;;
78563;SDS011;67856;47.754;19.088;2023-05-07T01:58:27;2.20;;;1.70;;
78563;SDS011;67856;47.754;19.088;2023-05-07T02:01:29;1.63;;;1.48;;
78563;SDS011;67856;47.754;19.088;2023-05-07T02:04:32;1.87;;;1.53;;
78563;SDS011;67856;47.754;19.088;2023-05-07T02:07:34;1.83;;;1.40;;
78563;SDS011;67856;47.754;19.088;2023-05-07T02:10:37;1.67;;;1.40;;
78563;SDS011;67856;47.754;19.088;2023-05-07T02:13:41;1.80;;;1.65;;
78563;SDS011;67856;47.754;19.088;2023-05-07T02:16:43;2.00;;;1.40;;
78563;SDS011;67856;47.754;19.088;2023-05-07T02:19:47;2.00;;;1.60;;
78563;SDS011;67856;47.754;19.088;2023-05-07T02:22:50;1.70;;;1.60;;
78563;SDS011;67856;47.754;19.088;2023-05-07T02:25:52;2.13;;;1.92;;
78563;SDS011;67856;47.754;19.088;2023-05-07T02:28:55;1.90;;;1.60;;
78563;SDS011;67856;47.754;19.088;2023-05-07T02:31:57;2.13;;;1.73;;
78563;SDS011;67856;47.754;19.088;2023-05-07T02:35:00;1.63;;;1.50;;
78563;SDS011;67856;47.754;19.088;2023-05-07T02:38:02;1.83;;;1.63;;
78563;SDS011;67856;47.754;19.088;2023-05-07T02:41:06;1.95;;;1.52;;
78563;SDS011;67856;47.754;19.088;2023-05-07T02:44:08;1.70;;;1.40;;
78563;SDS011;67856;47.754;19.088;2023-05-07T02:47:13;1.90;;;1.60;;
78563;SDS011;67856;47.754;19.088;2023-05-07T02:50:18;1.63;;;1.53;;
78563;SDS011;67856;47.754;19.088;2023-05-07T02:53:20;1.67;;;1.40;;
78563;SDS011;67856;47.754;19.088;2023-05-07T02:56:25;1.60;;;1.40;;
78563;SDS011;67856;47.754;19.088;2023-05-07T02:59:29;2.33;;;1.52;;
78563;SDS011;67856;47.754;19.088;2023-05-07T03:02:32;2.22;;;1.80;;
78563;SDS011;67856;47.754;19.088;2023-05-07T03:05:34;2.10;;;1.80;;
78563;SDS011;67856;47.754;19.088;2023-05-07T03:08:37;1.73;;;1.50;;
78563;SDS011;67856;47.754;19.088;2023-05-07T03:11:39;1.90;;;1.52;;
78563;SDS011;67856;47.754;19.088;2023-05-07T03:14:41;1.90;;;1.70;;
78563;SDS011;67856;47.754;19.088;2023-05-07T03:17:44;1.77;;;1.40;;
78563;SDS011;67856;47.754;19.088;2023-05-07T03:20:47;1.90;;;1.53;;
78563;SDS011;67856;47.754;19.088;2023-05-07T03:23:52;2.10;;;1.70;;
78563;SDS011;67856;47.754;19.088;2023-05-07T03:26:54;1.67;;;1.40;;
78563;SDS011;67856;47.754;19.088;2023-05-07T03:29:56;1.70;;;1.50;;
78563;SDS011;67856;47.754;19.088;2023-05-07T03:32:59;1.55;;;1.40;;
78563;SDS011;67856;47.754;19.088;2023-05-07T03:36:02;1.60;;;1.40;;
78563;SDS011;67856;47.754;19.088;2023-05-07T03:39:04;1.70;;;1.60;;
78563;SDS011;67856;47.754;19.088;2023-05-07T03:42:13;1.70;;;1.50;;
78563;SDS011;67856;47.754;19.088;2023-05-07T03:45:15;1.80;;;1.58;;
78563;SDS011;67856;47.754;19.088;2023-05-07T03:48:24;1.90;;;1.70;;
78563;SDS011;67856;47.754;19.088;2023-05-07T03:51:29;1.60;;;1.40;;
78563;SDS011;67856;47.754;19.088;2023-05-07T03:54:32;2.90;;;1.60;;
78563;SDS011;67856;47.754;19.088;2023-05-07T03:57:35;1.60;;;1.50;;
78563;SDS011;67856;47.754;19.088;2023-05-07T04:00:38;1.70;;;1.50;;
78563;SDS011;67856;47.754;19.088;2023-05-07T04:03:52;1.58;;;1.25;;
78563;SDS011;67856;47.754;19.088;2023-05-07T04:06:55;1.50;;;1.40;;
78563;SDS011;67856;47.754;19.088;2023-05-07T04:09:58;2.07;;;1.50;;
78563;SDS011;67856;47.754;19.088;2023-05-07T04:13:00;2.05;;;1.45;;
78563;SDS011;67856;47.754;19.088;2023-05-07T04:16:03;1.90;;;1.60;;
78563;SDS011;67856;47.754;19.088;2023-05-07T04:19:09;1.80;;;1.58;;
78563;SDS011;67856;47.754;19.088;2023-05-07T04:22:13;1.57;;;1.33;;
78563;SDS011;67856;47.754;19.088;2023-05-07T04:25:15;2.00;;;1.60;;
78563;SDS011;67856;47.754;19.088;2023-05-07T04:28:19;1.70;;;1.40;;
78563;SDS011;67856;47.754;19.088;2023-05-07T04:31:21;1.52;;;1.30;;
78563;SDS011;67856;47.754;19.088;2023-05-07T04:34:27;1.63;;;1.50;;
78563;SDS011;67856;47.754;19.088;2023-05-07T04:37:31;2.00;;;1.70;;
78563;SDS011;67856;47.754;19.088;2023-05-07T04:40:38;1.80;;;1.50;;
78563;SDS011;67856;47.754;19.088;2023-05-07T04:43:43;1.85;;;1.63;;
78563;SDS011;67856;47.754;19.088;2023-05-07T04:46:47;2.10;;;1.73;;
78563;SDS011;67856;47.754;19.088;2023-05-07T04:49:50;3.05;;;1.60;;
78563;SDS011;67856;47.754;19.088;2023-05-07T04:52:52;1.70;;;1.30;;
78563;SDS011;67856;47.754;19.088;2023-05-07T04:55:56;2.10;;;1.70;;
78563;SDS011;67856;47.754;19.088;2023-05-07T04:59:01;1.60;;;1.42;;
78563;SDS011;67856;47.754;19.088;2023-05-07T05:02:05;1.52;;;1.42;;
78563;SDS011;67856;47.754;19.088;2023-05-07T05:05:08;1.60;;;1.40;;
78563;SDS011;67856;47.754;19.088;2023-05-07T05:08:11;1.80;;;1.40;;
78563;SDS011;67856;47.754;19.088;2023-05-07T05:11:16;2.50;;;1.83;;
78563;SDS011;67856;47.754;19.088;2023-05-07T05:14:18;1.63;;;1.50;;
78563;SDS011;67856;47.754;19.088;2023-05-07T05:17:21;1.70;;;1.30;;
78563;SDS011;67856;47.754;19.088;2023-05-07T05:20:23;1.77;;;1.40;;
78563;SDS011;67856;47.754;19.088;2023-05-07T05:23:26;1.50;;;1.37;;
78563;SDS011;67856;47.754;19.088;2023-05-07T05:26:29;1.50;;;1.40;;
78563;SDS011;67856;47.754;19.088;2023-05-07T05:29:32;1.60;;;1.50;;
78563;SDS011;67856;47.754;19.088;2023-05-07T05:32:35;1.45;;;1.17;;
78563;SDS011;67856;47.754;19.088;2023-05-07T05:35:38;1.98;;;1.35;;
78563;SDS011;67856;47.754;19.088;2023-05-07T05:38:45;1.50;;;1.30;;
78563;SDS011;67856;47.754;19.088;2023-05-07T05:41:48;1.43;;;1.27;;
78563;SDS011;67856;47.754;19.088;2023-05-07T05:44:52;1.42;;;1.20;;
78563;SDS011;67856;47.754;19.088;2023-05-07T05:47:55;1.92;;;1.50;;
78563;SDS011;67856;47.754;19.088;2023-05-07T05:50:58;1.45;;;1.35;;
78563;SDS011;67856;47.754;19.088;2023-05-07T05:54:01;1.20;;;1.10;;
78563;SDS011;67856;47.754;19.088;2023-05-07T05:57:04;1.30;;;1.20;;
78563;SDS011;67856;47.754;19.088;2023-05-07T06:00:07;1.45;;;1.17;;
78563;SDS011;67856;47.754;19.088;2023-05-07T06:03:19;1.20;;;1.10;;
78563;SDS011;67856;47.754;19.088;2023-05-07T06:06:22;1.80;;;1.40;;
78563;SDS011;67856;47.754;19.088;2023-05-07T06:09:25;1.60;;;1.50;;
78563;SDS011;67856;47.754;19.088;2023-05-07T06:12:27;1.30;;;1.20;;
78563;SDS011;67856;47.754;19.088;2023-05-07T06:15:30;1.25;;;1.10;;
78563;SDS011;67856;47.754;19.088;2023-05-07T06:18:37;1.50;;;1.10;;
78563;SDS011;67856;47.754;19.088;2023-05-07T06:21:41;1.42;;;1.33;;
78563;SDS011;67856;47.754;19.088;2023-05-07T06:24:43;1.40;;;1.10;;
78563;SDS011;67856;47.754;19.088;2023-05-07T06:27:46;1.40;;;1.30;;
78563;SDS011;67856;47.754;19.088;2023-05-07T06:30:48;1.45;;;1.35;;
78563;SDS011;67856;47.754;19.088;2023-05-07T06:33:52;1.70;;;1.10;;
78563;SDS011;67856;47.754;19.088;2023-05-07T06:36:57;1.48;;;1.10;;
78563;SDS011;67856;47.754;19.088;2023-05-07T06:40:12;1.30;;;1.20;;
78563;SDS011;67856;47.754;19.088;2023-05-07T06:43:16;1.47;;;1.33;;
78563;SDS011;67856;47.754;19.088;2023-05-07T06:46:28;1.30;;;1.13;;
78563;SDS011;67856;47.754;19.088;2023-05-07T06:49:31;1.30;;;1.20;;
78563;SDS011;67856;47.754;19.088;2023-05-07T06:52:34;1.40;;;1.25;;
78563;SDS011;67856;47.754;19.088;2023-05-07T06:55:40;1.20;;;1.10;;
78563;SDS011;67856;47.754;19.088;2023-05-07T06:58:44;1.47;;;1.37;;
78563;SDS011;67856;47.754;19.088;2023-05-07T07:01:46;1.30;;;1.20;;
78563;SDS011;67856;47.754;19.088;2023-05-07T07:04:49;1.30;;;1.20;;
78563;SDS011;67856;47.754;19.088;2023-05-07T07:07:52;1.30;;;1.20;;
78563;SDS011;67856;47.754;19.088;2023-05-07T07:10:55;1.80;;;1.43;;
78563;SDS011;67856;47.754;19.088;2023-05-07T07:13:58;1.70;;;1.40;;
78563;SDS011;67856;47.754;19.088;2023-05-07T07:17:02;1.30;;;1.20;;
78563;SDS011;67856;47.754;19.088;2023-05-07T07:20:08;1.30;;;1.20;;
78563;SDS011;67856;47.754;19.088;2023-05-07T07:23:13;1.65;;;1.30;;
78563;SDS011;67856;47.754;19.088;2023-05-07T07:26:17;1.37;;;1.27;;
78563;SDS011;67856;47.754;19.088;2023-05-07T07:29:19;0.93;;;0.83;;
78563;SDS011;67856;47.754;19.088;2023-05-07T07:32:22;1.40;;;1.10;;
78563;SDS011;67856;47.754;19.088;2023-05-07T07:35:26;1.20;;;1.10;;
78563;SDS011;67856;47.754;19.088;2023-05-07T07:38:28;1.30;;;1.20;;
78563;SDS011;67856;47.754;19.088;2023-05-07T07:41:31;1.37;;;1.17;;
78563;SDS011;67856;47.754;19.088;2023-05-07T07:44:33;1.40;;;1.30;;
78563;SDS011;67856;47.754;19.088;2023-05-07T07:47:41;1.48;;;1.38;;
78563;SDS011;67856;47.754;19.088;2023-05-07T07:50:44;1.60;;;1.48;;
78563;SDS011;67856;47.754;19.088;2023-05-07T07:53:50;1.25;;;1.10;;
78563;SDS011;67856;47.754;19.088;2023-05-07T07:56:53;1.60;;;1.27;;
78563;SDS011;67856;47.754;19.088;2023-05-07T07:59:56;1.43;;;1.33;;
78563;SDS011;67856;47.754;19.088;2023-05-07T08:02:58;1.20;;;1.10;;
78563;SDS011;67856;47.754;19.088;2023-05-07T08:06:06;1.27;;;1.17;;
78563;SDS011;67856;47.754;19.088;2023-05-07T08:09:10;1.20;;;1.10;;
78563;SDS011;67856;47.754;19.088;2023-05-07T08:12:14;1.37;;;1.27;;
78563;SDS011;67856;47.754;19.088;2023-05-07T08:15:17;1.40;;;1.30;;
78563;SDS011;67856;47.754;19.088;2023-05-07T08:18:20;1.25;;;1.15;;
78563;SDS011;67856;47.754;19.088;2023-05-07T08:21:22;1.10;;;1.00;;
78563;SDS011;67856;47.754;19.088;2023-05-07T08:24:25;1.15;;;1.05;;
78563;SDS011;67856;47.754;19.088;2023-05-07T08:27:28;1.50;;;1.40;;
78563;SDS011;67856;47.754;19.088;2023-05-07T08:30:30;1.20;;;1.10;;
78563;SDS011;67856;47.754;19.088;2023-05-07T08:33:33;1.67;;;1.20;;
78563;SDS011;67856;47.754;19.088;2023-05-07T08:36:35;1.17;;;1.00;;
78563;SDS011;67856;47.754;19.088;2023-05-07T08:39:38;1.35;;;1.10;;
78563;SDS011;67856;47.754;19.088;2023-05-07T08:42:48;1.33;;;1.23;;
78563;SDS011;67856;47.754;19.088;2023-05-07T08:45:53;1.30;;;1.20;;
78563;SDS011;67856;47.754;19.088;2023-05-07T08:49:01;1.20;;;1.10;;
78563;SDS011;67856;47.754;19.088;2023-05-07T08:52:04;1.33;;;1.13;;
78563;SDS011;67856;47.754;19.088;2023-05-07T08:55:11;1.40;;;1.30;;
78563;SDS011;67856;47.754;19.088;2023-05-07T08:58:15;1.57;;;1.30;;
78563;SDS011;67856;47.754;19.088;2023-05-07T09:01:18;1.17;;;1.03;;
78563;SDS011;67856;47.754;19.088;2023-05-07T09:04:25;2.10;;;1.23;;
78563;SDS011;67856;47.754;19.088;2023-05-07T09:07:28;1.30;;;1.20;;
78563;SDS011;67856;47.754;19.088;2023-05-07T09:10:32;1.38;;;1.27;;
78563;SDS011;67856;47.754;19.088;2023-05-07T09:13:36;1.27;;;1.17;;
78563;SDS011;67856;47.754;19.088;2023-05-07T09:16:40;1.40;;;1.27;;
78563;SDS011;67856;47.754;19.088;2023-05-07T09:19:43;2.17;;;1.40;;
78563;SDS011;67856;47.754;19.088;2023-05-07T09:22:49;1.23;;;1.13;;
78563;SDS011;67856;47.754;19.088;2023-05-07T09:25:53;1.20;;;1.10;;
78563;SDS011;67856;47.754;19.088;2023-05-07T09:29:04;1.20;;;1.10;;
78563;SDS011;67856;47.754;19.088;2023-05-07T09:32:07;1.27;;;1.17;;
78563;SDS011;67856;47.754;19.088;2023-05-07T09:35:17;1.40;;;1.30;;
78563;SDS011;67856;47.754;19.088;2023-05-07T09:38:25;1.42;;;1.30;;
78563;SDS011;67856;47.754;19.088;2023-05-07T09:41:32;1.50;;;1.40;;
78563;SDS011;67856;47.754;19.088;2023-05-07T09:44:44;1.20;;;1.07;;
78563;SDS011;67856;47.754;19.088;2023-05-07T09:47:55;1.20;;;1.10;;
78563;SDS011;67856;47.754;19.088;2023-05-07T09:51:01;1.30;;;1.17;;
78563;SDS011;67856;47.754;19.088;2023-05-07T09:54:07;1.15;;;0.98;;
78563;SDS011;67856;47.754;19.088;2023-05-07T09:57:12;1.30;;;1.20;;
78563;SDS011;67856;47.754;19.088;2023-05-07T10:00:21;1.10;;;1.00;;
78563;SDS011;67856;47.754;19.088;2023-05-07T10:03:33;1.30;;;1.20;;
78563;SDS011;67856;47.754;19.088;2023-05-07T10:06:40;1.13;;;1.00;;
78563;SDS011;67856;47.754;19.088;2023-05-07T10:09:44;1.27;;;1.17;;
78563;SDS011;67856;47.754;19.088;2023-05-07T10:12:58;1.20;;;1.10;;
78563;SDS011;67856;47.754;19.088;2023-05-07T10:16:06;1.73;;;1.20;;
78563;SDS011;67856;47.754;19.088;2023-05-07T10:19:16;1.20;;;1.10;;
78563;SDS011;67856;47.754;19.088;2023-05-07T10:22:21;1.27;;;1.15;;
78563;SDS011;67856;47.754;19.088;2023-05-07T10:25:25;1.20;;;1.10;;
78563;SDS011;67856;47.754;19.088;2023-05-07T10:28:38;1.25;;;1.15;;
78563;SDS011;67856;47.754;19.088;2023-05-07T10:31:48;1.23;;;1.13;;
78563;SDS011;67856;47.754;19.088;2023-05-07T10:34:57;1.20;;;1.10;;
78563;SDS011;67856;47.754;19.088;2023-05-07T10:38:01;1.20;;;1.10;;
78563;SDS011;67856;47.754;19.088;2023-05-07T10:41:06;1.25;;;1.15;;
78563;SDS011;67856;47.754;19.088;2023-05-07T10:44:27;1.30;;;1.20;;
78563;SDS011;67856;47.754;19.088;2023-05-07T10:47:36;1.40;;;1.27;;
78563;SDS011;67856;47.754;19.088;2023-05-07T10:51:34;1.30;;;1.20;;
78563;SDS011;67856;47.754;19.088;2023-05-07T10:55:18;1.20;;;1.10;;
78563;SDS011;67856;47.754;19.088;2023-05-07T11:02:00;1.40;;;1.30;;
78563;SDS011;67856;47.754;19.088;2023-05-07T11:05:23;1.30;;;1.20;;
78563;SDS011;67856;47.754;19.088;2023-05-07T11:08:53;0.90;;;0.80;;
78563;SDS011;67856;47.754;19.088;2023-05-07T11:12:06;1.30;;;1.20;;
78563;SDS011;67856;47.754;19.088;2023-05-07T11:15:38;1.05;;;0.90;;
78563;SDS011;67856;47.754;19.088;2023-05-07T11:18:51;1.30;;;1.13;;
78563;SDS011;67856;47.754;19.088;2023-05-07T11:25:57;1.40;;;1.30;;
78563;SDS011;67856;47.754;19.088;2023-05-07T11:29:01;1.30;;;1.20;;
78563;SDS011;67856;47.754;19.088;2023-05-07T11:32:04;1.15;;;1.00;;
78563;SDS011;67856;47.754;19.088;2023-05-07T11:35:22;1.33;;;1.23;;
78563;SDS011;67856;47.754;19.088;2023-05-07T11:38:26;1.30;;;1.20;;
78563;SDS011;67856;47.754;19.088;2023-05-07T11:41:36;1.40;;;1.30;;
78563;SDS011;67856;47.754;19.088;2023-05-07T11:44:40;1.27;;;1.10;;
78563;SDS011;67856;47.754;19.088;2023-05-07T11:47:44;1.30;;;1.20;;
78563;SDS011;67856;47.754;19.088;2023-05-07T11:50:50;1.10;;;1.00;;
78563;SDS011;67856;47.754;19.088;2023-05-07T11:53:56;1.10;;;1.00;;
78563;SDS011;67856;47.754;19.088;2023-05-07T11:56:59;1.37;;;1.20;;
78563;SDS011;67856;47.754;19.088;2023-05-07T12:00:01;1.20;;;1.10;;
78563;SDS011;67856;47.754;19.088;2023-05-07T12:03:15;1.33;;;1.23;;
78563;SDS011;67856;47.754;19.088;2023-05-07T12:06:18;1.20;;;1.08;;
78563;SDS011;67856;47.754;19.088;2023-05-07T12:09:21;1.20;;;1.10;;
78563;SDS011;67856;47.754;19.088;2023-05-07T12:12:23;1.10;;;1.00;;
78563;SDS011;67856;47.754;19.088;2023-05-07T12:15:25;1.20;;;1.10;;
78563;SDS011;67856;47.754;19.088;2023-05-07T12:18:28;1.70;;;1.17;;
78563;SDS011;67856;47.754;19.088;2023-05-07T12:21:30;1.20;;;1.10;;
78563;SDS011;67856;47.754;19.088;2023-05-07T12:24:43;1.30;;;1.20;;
78563;SDS011;67856;47.754;19.088;2023-05-07T12:27:52;1.43;;;1.33;;
78563;SDS011;67856;47.754;19.088;2023-05-07T12:30:55;1.35;;;1.23;;
78563;SDS011;67856;47.754;19.088;2023-05-07T12:33:58;1.42;;;1.33;;
78563;SDS011;67856;47.754;19.088;2023-05-07T12:37:02;1.20;;;1.02;;
78563;SDS011;67856;47.754;19.088;2023-05-07T12:40:09;1.63;;;1.53;;
78563;SDS011;67856;47.754;19.088;2023-05-07T12:43:19;1.40;;;1.30;;
78563;SDS011;67856;47.754;19.088;2023-05-07T12:46:22;1.30;;;1.20;;
78563;SDS011;67856;47.754;19.088;2023-05-07T12:49:25;1.38;;;1.20;;
78563;SDS011;67856;47.754;19.088;2023-05-07T12:52:28;1.30;;;1.05;;
78563;SDS011;67856;47.754;19.088;2023-05-07T12:55:30;1.30;;;1.20;;
78563;SDS011;67856;47.754;19.088;2023-05-07T12:58:36;1.33;;;1.20;;
78563;SDS011;67856;47.754;19.088;2023-05-07T13:01:38;1.30;;;1.20;;
78563;SDS011;67856;47.754;19.088;2023-05-07T13:04:41;1.50;;;1.30;;
78563;SDS011;67856;47.754;19.088;2023-05-07T13:07:52;1.30;;;1.20;;
78563;SDS011;67856;47.754;19.088;2023-05-07T13:10:56;1.40;;;1.30;;
78563;SDS011;67856;47.754;19.088;2023-05-07T13:13:59;1.40;;;1.30;;
78563;SDS011;67856;47.754;19.088;2023-05-07T13:17:02;1.50;;;1.40;;
78563;SDS011;67856;47.754;19.088;2023-05-07T13:20:04;1.50;;;1.20;;
78563;SDS011;67856;47.754;19.088;2023-05-07T13:23:07;1.30;;;1.20;;
78563;SDS011;67856;47.754;19.088;2023-05-07T13:26:10;1.47;;;1.23;;
78563;SDS011;67856;47.754;19.088;2023-05-07T13:29:28;1.40;;;1.30;;
78563;SDS011;67856;47.754;19.088;2023-05-07T13:32:33;1.30;;;1.20;;
78563;SDS011;67856;47.754;19.088;2023-05-07T13:35:36;1.60;;;1.50;;
78563;SDS011;67856;47.754;19.088;2023-05-07T13:38:39;1.58;;;1.48;;
78563;SDS011;67856;47.754;19.088;2023-05-07T13:41:42;1.30;;;1.17;;
78563;SDS011;67856;47.754;19.088;2023-05-07T13:44:44;1.50;;;1.40;;
78563;SDS011;67856;47.754;19.088;2023-05-07T13:47:47;1.40;;;1.20;;
78563;SDS011;67856;47.754;19.088;2023-05-07T13:50:51;1.30;;;1.20;;
78563;SDS011;67856;47.754;19.088;2023-05-07T13:53:53;1.50;;;1.40;;
78563;SDS011;67856;47.754;19.088;2023-05-07T13:56:56;1.43;;;1.30;;
78563;SDS011;67856;47.754;19.088;2023-05-07T13:59:58;1.37;;;1.27;;
78563;SDS011;67856;47.754;19.088;2023-05-07T14:03:01;1.42;;;1.33;;
78563;SDS011;67856;47.754;19.088;2023-05-07T14:06:04;1.33;;;1.23;;
78563;SDS011;67856;47.754;19.088;2023-05-07T14:09:06;1.55;;;1.30;;
78563;SDS011;67856;47.754;19.088;2023-05-07T14:12:08;1.50;;;1.40;;
78563;SDS011;67856;47.754;19.088;2023-05-07T14:15:11;1.27;;;1.13;;
78563;SDS011;67856;47.754;19.088;2023-05-07T14:18:13;1.50;;;1.40;;
78563;SDS011;67856;47.754;19.088;2023-05-07T14:21:16;1.30;;;1.20;;
78563;SDS011;67856;47.754;19.088;2023-05-07T14:24:18;1.63;;;1.20;;
78563;SDS011;67856;47.754;19.088;2023-05-07T14:27:38;1.30;;;1.20;;
78563;SDS011;67856;47.754;19.088;2023-05-07T14:30:41;1.33;;;1.23;;
78563;SDS011;67856;47.754;19.088;2023-05-07T14:33:43;1.63;;;1.30;;
78563;SDS011;67856;47.754;19.088;2023-05-07T14:36:46;1.40;;;1.30;;
78563;SDS011;67856;47.754;19.088;2023-05-07T14:39:48;1.33;;;1.23;;
78563;SDS011;67856;47.754;19.088;2023-05-07T14:42:52;1.50;;;1.40;;
78563;SDS011;67856;47.754;19.088;2023-05-07T14:45:54;1.50;;;1.40;;
78563;SDS011;67856;47.754;19.088;2023-05-07T14:48:57;1.40;;;1.30;;
78563;SDS011;67856;47.754;19.088;2023-05-07T14:51:59;1.40;;;1.30;;
78563;SDS011;67856;47.754;19.088;2023-05-07T14:55:02;1.60;;;1.50;;
78563;SDS011;67856;47.754;19.088;2023-05-07T14:58:05;1.50;;;1.40;;
78563;SDS011;67856;47.754;19.088;2023-05-07T15:01:07;1.50;;;1.27;;
78563;SDS011;67856;47.754;19.088;2023-05-07T15:04:10;1.38;;;1.27;;
78563;SDS011;67856;47.754;19.088;2023-05-07T15:07:12;1.45;;;1.25;;
78563;SDS011;67856;47.754;19.088;2023-05-07T15:10:18;1.58;;;1.48;;
78563;SDS011;67856;47.754;19.088;2023-05-07T15:13:20;1.43;;;1.33;;
78563;SDS011;67856;47.754;19.088;2023-05-07T15:16:23;1.47;;;1.23;;
78563;SDS011;67856;47.754;19.088;2023-05-07T15:19:25;2.22;;;1.70;;
78563;SDS011;67856;47.754;19.088;2023-05-07T15:22:31;1.40;;;1.30;;
78563;SDS011;67856;47.754;19.088;2023-05-07T15:25:33;1.60;;;1.50;;
78563;SDS011;67856;47.754;19.088;2023-05-07T15:28:36;1.40;;;1.30;;
78563;SDS011;67856;47.754;19.088;2023-05-07T15:31:38;1.43;;;1.33;;
78563;SDS011;67856;47.754;19.088;2023-05-07T15:34:41;1.50;;;1.40;;
78563;SDS011;67856;47.754;19.088;2023-05-07T15:37:46;1.58;;;1.48;;
78563;SDS011;67856;47.754;19.088;2023-05-07T15:40:48;1.20;;;1.10;;
78563;SDS011;67856;47.754;19.088;2023-05-07T15:43:51;2.23;;;1.40;;
78563;SDS011;67856;47.754;19.088;2023-05-07T15:46:54;1.57;;;1.47;;
78563;SDS011;67856;47.754;19.088;2023-05-07T15:49:56;1.40;;;1.30;;
78563;SDS011;67856;47.754;19.088;2023-05-07T15:52:59;1.60;;;1.50;;
78563;SDS011;67856;47.754;19.088;2023-05-07T15:56:02;1.30;;;1.20;;
78563;SDS011;67856;47.754;19.088;2023-05-07T15:59:04;1.63;;;1.33;;
78563;SDS011;67856;47.754;19.088;2023-05-07T16:02:07;1.43;;;1.33;;
78563;SDS011;67856;47.754;19.088;2023-05-07T16:05:09;1.55;;;1.38;;
78563;SDS011;67856;47.754;19.088;2023-05-07T16:08:13;1.50;;;1.40;;
78563;SDS011;67856;47.754;19.088;2023-05-07T16:11:15;1.50;;;1.40;;
78563;SDS011;67856;47.754;19.088;2023-05-07T16:14:18;1.50;;;1.40;;
78563;SDS011;67856;47.754;19.088;2023-05-07T16:17:20;1.37;;;1.27;;
78563;SDS011;67856;47.754;19.088;2023-05-07T16:20:25;1.45;;;1.10;;
78563;SDS011;67856;47.754;19.088;2023-05-07T16:23:30;1.52;;;1.23;;
78563;SDS011;67856;47.754;19.088;2023-05-07T16:26:33;1.50;;;1.40;;
78563;SDS011;67856;47.754;19.088;2023-05-07T16:29:35;1.20;;;1.10;;
78563;SDS011;67856;47.754;19.088;2023-05-07T16:32:38;1.53;;;1.30;;
78563;SDS011;67856;47.754;19.088;2023-05-07T16:35:40;1.30;;;1.20;;
78563;SDS011;67856;47.754;19.088;2023-05-07T16:38:45;1.42;;;1.33;;
78563;SDS011;67856;47.754;19.088;2023-05-07T16:41:47;1.40;;;1.30;;
78563;SDS011;67856;47.754;19.088;2023-05-07T16:44:51;1.30;;;1.20;;
78563;SDS011;67856;47.754;19.088;2023-05-07T16:47:54;1.60;;;1.50;;
78563;SDS011;67856;47.754;19.088;2023-05-07T16:50:57;1.40;;;1.30;;
78563;SDS011;67856;47.754;19.088;2023-05-07T16:54:00;1.23;;;1.13;;
78563;SDS011;67856;47.754;19.088;2023-05-07T16:57:03;1.35;;;1.25;;
78563;SDS011;67856;47.754;19.088;2023-05-07T17:00:05;1.40;;;1.30;;
78563;SDS011;67856;47.754;19.088;2023-05-07T17:03:08;1.50;;;1.40;;
78563;SDS011;67856;47.754;19.088;2023-05-07T17:06:11;1.23;;;1.13;;
78563;SDS011;67856;47.754;19.088;2023-05-07T17:09:16;1.67;;;1.48;;
78563;SDS011;67856;47.754;19.088;2023-05-07T17:12:18;1.52;;;1.30;;
78563;SDS011;67856;47.754;19.088;2023-05-07T17:15:20;1.50;;;1.40;;
78563;SDS011;67856;47.754;19.088;2023-05-07T17:18:23;1.40;;;1.20;;
78563;SDS011;67856;47.754;19.088;2023-05-07T17:21:25;1.30;;;1.20;;
78563;SDS011;67856;47.754;19.088;2023-05-07T17:24:28;1.63;;;1.52;;
78563;SDS011;67856;47.754;19.088;2023-05-07T17:27:31;1.40;;;1.30;;
78563;SDS011;67856;47.754;19.088;2023-05-07T17:30:35;1.27;;;1.17;;
78563;SDS011;67856;47.754;19.088;2023-05-07T17:33:37;1.93;;;1.30;;
78563;SDS011;67856;47.754;19.088;2023-05-07T17:36:40;1.42;;;1.33;;
78563;SDS011;67856;47.754;19.088;2023-05-07T17:39:42;1.35;;;1.20;;
78563;SDS011;67856;47.754;19.088;2023-05-07T17:42:45;1.60;;;1.50;;
78563;SDS011;67856;47.754;19.088;2023-05-07T17:45:47;2.93;;;1.50;;
78563;SDS011;67856;47.754;19.088;2023-05-07T17:48:50;6.03;;;2.27;;
78563;SDS011;67856;47.754;19.088;2023-05-07T17:51:53;2.10;;;1.70;;
78563;SDS011;67856;47.754;19.088;2023-05-07T17:54:57;1.88;;;1.60;;
78563;SDS011;67856;47.754;19.088;2023-05-07T17:57:59;2.13;;;1.90;;
78563;SDS011;67856;47.754;19.088;2023-05-07T18:01:03;2.70;;;2.30;;
78563;SDS011;67856;47.754;19.088;2023-05-07T18:04:05;2.63;;;2.30;;
78563;SDS011;67856;47.754;19.088;2023-05-07T18:07:09;2.63;;;2.13;;
78563;SDS011;67856;47.754;19.088;2023-05-07T18:10:11;1.95;;;1.67;;
78563;SDS011;67856;47.754;19.088;2023-05-07T18:13:14;2.08;;;1.88;;
78563;SDS011;67856;47.754;19.088;2023-05-07T18:16:17;2.50;;;2.30;;
78563;SDS011;67856;47.754;19.088;2023-05-07T18:19:20;2.10;;;1.90;;
78563;SDS011;67856;47.754;19.088;2023-05-07T18:22:23;2.25;;;1.92;;